Time;durP1;ratioP1;P1;durP2;ratioP2;P2;SDS_P1;SDS_P2;PMS_P1;PMS_P2;Temp;Humidity;BMP_temperature;BMP_pressure;BME280_temperature;BME280_humidity;BME280_pressure;Samples;Min_cycle;Max_cycle;Signal;HPM_P1;HPM_P2
2023/07/25 00:01:55;;;;;;;;;;;19.10;99.90;;;;;;5051291;28;20019;-67
2023/07/25 00:04:23;;;;;;;;;;;19.10;99.90;;;;;;5050939;28;19935;-67
2023/07/25 00:06:51;;;;;;;;;;;19.00;99.90;;;;;;5051186;28;19928;-68
2023/07/25 00:09:18;;;;;;;;;;;19.00;99.90;;;;;;5047741;28;19924;-67
2023/07/25 00:11:46;;;;;;;;;;;18.90;99.90;;;;;;5045187;28;20284;-67
2023/07/25 00:14:15;;;;;;;;;;;19.00;99.90;;;;;;5041501;28;19963;-67
2023/07/25 00:16:43;;;;;;;;;;;19.00;99.90;;;;;;5051181;28;19925;-67
2023/07/25 00:19:11;;;;;;;;;;;19.00;99.90;;;;;;5050865;28;20018;-67
2023/07/25 00:21:39;;;;;;;;;;;19.00;99.90;;;;;;5051319;28;20319;-67
2023/07/25 00:24:07;;;;;;;;;;;19.00;99.90;;;;;;5049697;28;20027;-67
2023/07/25 00:26:34;;;;;;;;;;;19.00;99.90;;;;;;5045297;28;20633;-67
2023/07/25 00:29:02;;;;;;;;;;;19.00;99.90;;;;;;5038187;28;19925;-67
2023/07/25 00:31:32;;;;;;;;;;;18.90;99.90;;;;;;5050943;28;19975;-67
2023/07/25 00:34:00;;;;;;;;;;;19.00;99.90;;;;;;5040013;28;19974;-67
2023/07/25 00:36:28;;;;;;;;;;;19.00;99.90;;;;;;5031009;28;19940;-67
2023/07/25 00:38:56;;;;;;;;;;;19.00;99.90;;;;;;5031009;28;20399;-67
2023/07/25 00:41:23;;;;;;;;;;;19.00;99.90;;;;;;5031060;28;19928;-67
2023/07/25 00:43:51;;;;;;;;;;;18.90;99.90;;;;;;5037367;28;19920;-67
2023/07/25 00:46:19;;;;;;;;;;;19.00;99.90;;;;;;5050535;28;19921;-67
2023/07/25 00:48:48;;;;;;;;;;;18.90;99.90;;;;;;5044478;28;19927;-68
2023/07/25 00:51:16;;;;;;;;;;;18.90;99.90;;;;;;5050796;28;19928;-67
2023/07/25 00:53:44;;;;;;;;;;;18.90;99.90;;;;;;5050842;28;19924;-67
2023/07/25 00:56:13;;;;;;;;;;;18.90;99.90;;;;;;5054418;28;19928;-68
2023/07/25 00:58:41;;;;;;;;;;;18.90;99.90;;;;;;5050629;28;19924;-68
2023/07/25 01:01:09;;;;;;;;;;;18.90;99.90;;;;;;5047970;28;19921;-68
2023/07/25 01:03:38;;;;;;;;;;;19.00;99.90;;;;;;5054326;28;20458;-68
2023/07/25 01:06:10;;;;;;;;;;;19.00;99.90;;;;;;5054267;28;20306;-68
2023/07/25 01:08:47;;;;;;;;;;;19.10;99.90;;;;;;5053548;28;19982;-68
2023/07/25 01:11:15;;;;;;;;;;;19.20;99.90;;;;;;5054074;28;19994;-66
2023/07/25 01:13:43;;;;;;;;;;;19.30;99.90;;;;;;5054433;28;20357;-66
2023/07/25 01:16:11;;;;;;;;;;;19.30;99.90;;;;;;5045653;28;19920;-66
2023/07/25 01:18:39;;;;;;;;;;;19.20;99.90;;;;;;5052972;28;19921;-66
2023/07/25 01:21:09;;;;;;;;;;;19.10;99.90;;;;;;5054271;28;20023;-66
2023/07/25 01:23:37;;;;;;;;;;;19.20;99.90;;;;;;5054045;28;20307;-66
2023/07/25 01:26:07;;;;;;;;;;;19.10;99.90;;;;;;5054019;28;19954;-66
2023/07/25 01:28:37;;;;;;;;;;;19.20;99.90;;;;;;5050327;28;19947;-66
2023/07/25 01:31:05;;;;;;;;;;;19.20;99.90;;;;;;5042216;28;19947;-66
2023/07/25 01:33:32;;;;;;;;;;;19.20;99.90;;;;;;5034047;28;19932;-66
2023/07/25 01:36:00;;;;;;;;;;;19.20;99.90;;;;;;5048824;28;19920;-66
2023/07/25 01:38:28;;;;;;;;;;;19.20;99.90;;;;;;5053488;28;19983;-66
2023/07/25 01:40:56;;;;;;;;;;;19.10;99.90;;;;;;5053951;28;19936;-66
2023/07/25 01:43:25;;;;;;;;;;;19.10;99.90;;;;;;5053421;28;19924;-66
2023/07/25 01:45:53;;;;;;;;;;;19.00;99.90;;;;;;5052268;28;19932;-67
2023/07/25 01:48:21;;;;;;;;;;;19.00;99.90;;;;;;5045478;28;20012;-67
2023/07/25 01:50:48;;;;;;;;;;;18.90;99.90;;;;;;5033849;28;19925;-67
2023/07/25 01:53:24;;;;;;;;;;;19.00;99.90;;;;;;5049806;28;20011;-67
2023/07/25 01:55:52;;;;;;;;;;;18.90;99.90;;;;;;5053450;28;20333;-67
2023/07/25 01:58:20;;;;;;;;;;;19.00;99.90;;;;;;5044749;28;19935;-68
2023/07/25 02:00:49;;;;;;;;;;;19.00;99.90;;;;;;5053440;28;19939;-68
2023/07/25 02:03:18;;;;;;;;;;;18.90;99.90;;;;;;5053110;28;19982;-67
2023/07/25 02:05:46;;;;;;;;;;;18.80;99.90;;;;;;5053338;28;19931;-68
2023/07/25 02:08:13;;;;;;;;;;;18.80;99.90;;;;;;5049649;28;20429;-67
2023/07/25 02:10:41;;;;;;;;;;;18.70;99.90;;;;;;5052708;28;19921;-67
2023/07/25 02:13:09;;;;;;;;;;;18.70;99.90;;;;;;5064176;28;19932;-69
2023/07/25 02:15:37;;;;;;;;;;;18.60;99.90;;;;;;5051739;28;19928;-68
2023/07/25 02:18:06;;;;;;;;;;;18.70;99.90;;;;;;5053152;28;19921;-68
2023/07/25 02:20:34;;;;;;;;;;;18.70;99.90;;;;;;5052923;28;20457;-68
2023/07/25 02:23:02;;;;;;;;;;;18.70;99.90;;;;;;5051574;28;19921;-68
2023/07/25 02:25:30;;;;;;;;;;;18.70;99.90;;;;;;5048701;28;19921;-68
2023/07/25 02:27:58;;;;;;;;;;;18.70;99.90;;;;;;5053185;28;19928;-68
2023/07/25 02:30:25;;;;;;;;;;;18.70;99.90;;;;;;5052646;28;19921;-68
2023/07/25 02:32:53;;;;;;;;;;;18.60;99.90;;;;;;5053011;28;19949;-68
2023/07/25 02:35:22;;;;;;;;;;;18.60;99.90;;;;;;5044358;28;19925;-66
2023/07/25 02:37:50;;;;;;;;;;;18.60;99.90;;;;;;5044917;28;19927;-68
2023/07/25 02:40:18;;;;;;;;;;;18.50;99.90;;;;;;5052768;28;19928;-68
2023/07/25 02:42:46;;;;;;;;;;;18.50;99.90;;;;;;5046628;28;19924;-68
2023/07/25 02:45:13;;;;;;;;;;;18.50;99.90;;;;;;5047860;28;19921;-68
2023/07/25 02:47:41;;;;;;;;;;;18.60;99.90;;;;;;5049359;28;19920;-68
2023/07/25 02:50:10;;;;;;;;;;;18.50;99.90;;;;;;5038544;28;19927;-68
2023/07/25 02:52:39;;;;;;;;;;;18.40;99.90;;;;;;5052101;28;20342;-68
2023/07/25 02:55:07;;;;;;;;;;;18.30;99.90;;;;;;5052271;28;19924;-67
2023/07/25 02:57:34;;;;;;;;;;;18.20;99.90;;;;;;5052008;28;19928;-67
2023/07/25 03:00:02;;;;;;;;;;;18.00;99.90;;;;;;5048209;28;19920;-67
2023/07/25 03:02:30;;;;;;;;;;;18.00;99.90;;;;;;5052323;28;19927;-67
2023/07/25 03:04:58;;;;;;;;;;;17.90;99.90;;;;;;5049665;28;20306;-67
2023/07/25 03:07:26;;;;;;;;;;;17.90;99.90;;;;;;5035177;28;19928;-67
2023/07/25 03:09:55;;;;;;;;;;;18.00;99.90;;;;;;5032489;28;19925;-68
2023/07/25 03:12:24;;;;;;;;;;;18.00;99.90;;;;;;5032207;28;20387;-68
2023/07/25 03:14:52;;;;;;;;;;;18.00;99.90;;;;;;5038218;28;19921;-68
2023/07/25 03:17:20;;;;;;;;;;;18.00;99.90;;;;;;5047259;28;19920;-66
2023/07/25 03:19:47;;;;;;;;;;;18.00;99.90;;;;;;5032562;28;19925;-68
2023/07/25 03:22:17;;;;;;;;;;;18.00;99.90;;;;;;5032181;28;20392;-68
2023/07/25 03:24:45;;;;;;;;;;;18.00;99.90;;;;;;5037845;28;20020;-67
2023/07/25 03:27:14;;;;;;;;;;;17.90;99.90;;;;;;5051569;28;19927;-68
2023/07/25 03:29:42;;;;;;;;;;;17.90;99.90;;;;;;5051805;28;19927;-68
2023/07/25 03:32:10;;;;;;;;;;;17.70;99.90;;;;;;5051740;28;19925;-67
2023/07/25 03:34:38;;;;;;;;;;;17.50;99.90;;;;;;5046819;28;19925;-68
2023/07/25 03:37:06;;;;;;;;;;;17.50;99.90;;;;;;5046351;28;19944;-68
2023/07/25 03:39:34;;;;;;;;;;;17.50;99.90;;;;;;5031830;28;20303;-68
2023/07/25 03:42:02;;;;;;;;;;;17.50;99.90;;;;;;5031674;28;19925;-68
2023/07/25 03:44:31;;;;;;;;;;;17.40;99.90;;;;;;5039146;28;19925;-68
2023/07/25 03:47:02;;;;;;;;;;;17.30;99.90;;;;;;5045397;28;19956;-68
2023/07/25 03:49:30;;;;;;;;;;;17.20;99.90;;;;;;5040022;28;20418;-68
2023/07/25 03:51:58;;;;;;;;;;;17.20;99.90;;;;;;5047028;28;20395;-68
2023/07/25 03:54:25;;;;;;;;;;;17.00;99.90;;;;;;5051462;28;19924;-68
2023/07/25 03:56:54;;;;;;;;;;;17.00;99.90;;;;;;5051136;28;19924;-68
2023/07/25 03:59:21;;;;;;;;;;;16.90;99.90;;;;;;5054477;28;19924;-68
2023/07/25 04:01:50;;;;;;;;;;;16.90;99.90;;;;;;5058298;28;19927;-67
2023/07/25 04:04:18;;;;;;;;;;;16.80;99.90;;;;;;5054821;28;19992;-67
2023/07/25 04:06:46;;;;;;;;;;;16.80;99.90;;;;;;5060815;28;19966;-67
2023/07/25 04:09:14;;;;;;;;;;;16.80;99.90;;;;;;5057763;28;19921;-67
2023/07/25 04:11:41;;;;;;;;;;;16.80;99.90;;;;;;5052237;28;19928;-68
2023/07/25 04:14:09;;;;;;;;;;;16.70;99.90;;;;;;5048844;28;19932;-69
2023/07/25 04:16:37;;;;;;;;;;;16.80;99.90;;;;;;5052071;28;19928;-69
2023/07/25 04:19:06;;;;;;;;;;;16.90;99.90;;;;;;5052154;28;20033;-69
2023/07/25 04:21:34;;;;;;;;;;;17.00;99.90;;;;;;5052584;28;19928;-69
2023/07/25 04:24:02;;;;;;;;;;;17.10;99.90;;;;;;5051799;28;19975;-68
2023/07/25 04:26:29;;;;;;;;;;;17.10;99.90;;;;;;5052488;28;19929;-69
2023/07/25 04:28:57;;;;;;;;;;;17.10;99.90;;;;;;5051640;28;19929;-69
2023/07/25 04:31:25;;;;;;;;;;;17.10;99.90;;;;;;5050727;28;19928;-69
2023/07/25 04:33:53;;;;;;;;;;;17.10;99.90;;;;;;5052638;28;19928;-69
2023/07/25 04:36:22;;;;;;;;;;;17.20;99.90;;;;;;5050616;28;19928;-69
2023/07/25 04:38:50;;;;;;;;;;;17.20;99.90;;;;;;5056976;28;19920;-69
2023/07/25 04:41:17;;;;;;;;;;;17.20;99.90;;;;;;5053834;28;19928;-69
2023/07/25 04:43:45;;;;;;;;;;;17.30;99.90;;;;;;5053955;28;19935;-69
2023/07/25 04:46:13;;;;;;;;;;;17.40;99.90;;;;;;5055515;28;19929;-69
2023/07/25 04:48:41;;;;;;;;;;;17.50;99.90;;;;;;5056952;28;20493;-69
2023/07/25 04:51:08;;;;;;;;;;;17.40;99.90;;;;;;5054647;28;20114;-69
2023/07/25 04:53:38;;;;;;;;;;;17.50;99.90;;;;;;5055709;28;19929;-68
2023/07/25 04:56:05;;;;;;;;;;;17.50;99.90;;;;;;5056008;28;19929;-68
2023/07/25 04:58:33;;;;;;;;;;;17.40;99.90;;;;;;5053839;28;20474;-69
2023/07/25 05:01:01;;;;;;;;;;;17.40;99.90;;;;;;5053739;28;19939;-69
2023/07/25 05:03:29;;;;;;;;;;;17.40;99.90;;;;;;5054076;28;19960;-69
2023/07/25 05:05:57;;;;;;;;;;;17.30;99.90;;;;;;5066968;28;19932;-69
2023/07/25 05:08:25;;;;;;;;;;;17.40;99.90;;;;;;5053321;28;19974;-69
2023/07/25 05:10:54;;;;;;;;;;;17.40;99.90;;;;;;5050593;28;19921;-69
2023/07/25 05:13:22;;;;;;;;;;;17.40;99.90;;;;;;5046528;28;19994;-67
2023/07/25 05:15:50;;;;;;;;;;;17.50;99.90;;;;;;5045185;28;19925;-67
2023/07/25 05:18:18;;;;;;;;;;;17.50;99.90;;;;;;5048355;28;19956;-67
2023/07/25 05:20:45;;;;;;;;;;;17.50;99.90;;;;;;5046607;28;19951;-67
2023/07/25 05:23:13;;;;;;;;;;;17.50;99.90;;;;;;5045873;28;19928;-73
2023/07/25 05:25:41;;;;;;;;;;;17.50;99.90;;;;;;5042839;28;20426;-68
2023/07/25 05:28:10;;;;;;;;;;;17.50;99.90;;;;;;5043250;28;19936;-70
2023/07/25 05:30:38;;;;;;;;;;;17.30;99.90;;;;;;5040715;28;19986;-70
2023/07/25 05:33:06;;;;;;;;;;;17.10;99.90;;;;;;5041858;28;19929;-71
2023/07/25 05:35:34;;;;;;;;;;;17.00;99.90;;;;;;5042325;28;19924;-67
2023/07/25 05:38:02;;;;;;;;;;;16.80;99.90;;;;;;5042387;28;19947;-69
2023/07/25 05:40:30;;;;;;;;;;;16.70;99.90;;;;;;5040678;28;19936;-68
2023/07/25 05:42:58;;;;;;;;;;;16.60;99.90;;;;;;5042005;28;19962;-69
2023/07/25 05:45:27;;;;;;;;;;;16.50;99.90;;;;;;5040792;28;19932;-71
2023/07/25 05:47:54;;;;;;;;;;;16.50;99.90;;;;;;5041761;28;19921;-69
2023/07/25 05:50:22;;;;;;;;;;;16.60;99.90;;;;;;5039871;28;19928;-70
2023/07/25 05:52:50;;;;;;;;;;;16.60;99.90;;;;;;5041170;28;19928;-70
2023/07/25 05:55:18;;;;;;;;;;;16.50;99.90;;;;;;5041640;28;20452;-70
2023/07/25 05:57:46;;;;;;;;;;;16.50;99.90;;;;;;5042389;28;19935;-69
2023/07/25 06:00:14;;;;;;;;;;;16.50;99.90;;;;;;5040085;28;20357;-69
2023/07/25 06:02:43;;;;;;;;;;;16.50;99.90;;;;;;5042420;28;20034;-71
2023/07/25 06:05:10;;;;;;;;;;;16.50;99.90;;;;;;5041645;28;19999;-70
2023/07/25 06:07:38;;;;;;;;;;;16.60;99.90;;;;;;5041684;28;19982;-70
2023/07/25 06:10:07;;;;;;;;;;;16.60;99.90;;;;;;5039272;28;19935;-69
2023/07/25 06:12:34;;;;;;;;;;;16.50;99.90;;;;;;5042013;28;19928;-68
2023/07/25 06:15:02;;;;;;;;;;;16.40;99.90;;;;;;5040430;28;19944;-68
2023/07/25 06:17:30;;;;;;;;;;;16.30;99.90;;;;;;5054622;28;19925;-68
2023/07/25 06:19:59;;;;;;;;;;;16.30;99.90;;;;;;5052210;28;20023;-68
2023/07/25 06:22:27;;;;;;;;;;;16.30;99.90;;;;;;5053080;28;19943;-67
2023/07/25 06:24:55;;;;;;;;;;;16.30;99.90;;;;;;5045571;28;19925;-67
2023/07/25 06:27:22;;;;;;;;;;;16.20;99.90;;;;;;5055894;28;20023;-69
2023/07/25 06:29:53;;;;;;;;;;;16.10;99.90;;;;;;5055154;28;20016;-68
2023/07/25 06:32:21;;;;;;;;;;;16.00;99.90;;;;;;5045691;28;19928;-69
2023/07/25 06:34:49;;;;;;;;;;;16.10;99.90;;;;;;5047140;28;20011;-69
2023/07/25 06:37:19;;;;;;;;;;;16.20;99.90;;;;;;5052519;28;19967;-69
2023/07/25 06:39:46;;;;;;;;;;;16.20;99.90;;;;;;5052547;28;19927;-69
2023/07/25 06:42:14;;;;;;;;;;;16.20;99.90;;;;;;5052637;28;19921;-70
2023/07/25 06:44:42;;;;;;;;;;;16.20;99.90;;;;;;5052745;28;19998;-69
2023/07/25 06:47:10;;;;;;;;;;;16.30;99.90;;;;;;5051887;28;19927;-69
2023/07/25 06:49:38;;;;;;;;;;;16.30;99.90;;;;;;5052743;28;19921;-69
2023/07/25 06:52:06;;;;;;;;;;;16.40;99.90;;;;;;5051655;28;19974;-69
2023/07/25 06:54:35;;;;;;;;;;;16.40;99.90;;;;;;5052542;28;20345;-69
2023/07/25 06:57:03;;;;;;;;;;;16.50;99.90;;;;;;5052049;28;19921;-69
2023/07/25 06:59:30;;;;;;;;;;;16.50;99.90;;;;;;5051929;28;19929;-69
2023/07/25 07:01:58;;;;;;;;;;;16.60;99.90;;;;;;5052253;28;20457;-69
2023/07/25 07:04:26;;;;;;;;;;;16.60;99.90;;;;;;5047141;28;19920;-69
2023/07/25 07:06:54;;;;;;;;;;;16.80;99.90;;;;;;5035978;28;19921;-71
2023/07/25 07:09:21;;;;;;;;;;;16.80;99.90;;;;;;5052412;28;20299;-69
2023/07/25 07:11:50;;;;;;;;;;;16.80;99.90;;;;;;5052289;28;20418;-69
2023/07/25 07:14:18;;;;;;;;;;;16.80;99.90;;;;;;5048137;28;19921;-70
2023/07/25 07:16:46;;;;;;;;;;;16.80;99.90;;;;;;5031997;28;19928;-70
2023/07/25 07:19:14;;;;;;;;;;;16.70;99.90;;;;;;5043803;28;19982;-70
2023/07/25 07:21:42;;;;;;;;;;;16.60;99.90;;;;;;5052077;28;20461;-70
2023/07/25 07:24:09;;;;;;;;;;;16.60;99.90;;;;;;5040085;28;19940;-70
2023/07/25 07:26:37;;;;;;;;;;;16.50;99.90;;;;;;5051793;28;19921;-70
2023/07/25 07:29:06;;;;;;;;;;;16.40;99.90;;;;;;5033391;28;19931;-70
2023/07/25 07:31:34;;;;;;;;;;;16.30;99.90;;;;;;5035088;28;19920;-70
2023/07/25 07:34:13;;;;;;;;;;;16.30;99.90;;;;;;5050025;28;20452;-71
2023/07/25 07:36:41;;;;;;;;;;;16.30;99.90;;;;;;5045988;28;19921;-71
2023/07/25 07:39:08;;;;;;;;;;;16.30;99.90;;;;;;5051768;28;19921;-71
2023/07/25 07:41:36;;;;;;;;;;;16.30;99.90;;;;;;5051806;28;19925;-71
2023/07/25 07:44:04;;;;;;;;;;;16.30;99.90;;;;;;5041659;28;19948;-70
2023/07/25 07:46:33;;;;;;;;;;;16.30;99.90;;;;;;5031432;28;19921;-71
2023/07/25 07:49:01;;;;;;;;;;;16.30;99.90;;;;;;5031611;28;20280;-70
2023/07/25 07:51:30;;;;;;;;;;;16.40;99.90;;;;;;5031942;28;19927;-71
2023/07/25 07:53:59;;;;;;;;;;;16.30;99.90;;;;;;5049026;28;20031;-71
2023/07/25 07:56:27;;;;;;;;;;;16.20;99.90;;;;;;5051230;28;20430;-70
2023/07/25 07:58:55;;;;;;;;;;;16.10;99.90;;;;;;5051438;28;19920;-71
2023/07/25 08:01:23;;;;;;;;;;;16.10;99.90;;;;;;5051595;28;20003;-70
2023/07/25 08:03:53;;;;;;;;;;;15.90;99.90;;;;;;5051614;28;19927;-70
2023/07/25 08:06:20;;;;;;;;;;;15.90;99.90;;;;;;5043237;28;19920;-70
2023/07/25 08:08:48;;;;;;;;;;;15.90;99.90;;;;;;5051489;28;19924;-71
2023/07/25 08:11:16;;;;;;;;;;;15.70;99.90;;;;;;5052381;28;19927;-71
2023/07/25 08:13:44;;;;;;;;;;;15.70;99.90;;;;;;5050730;28;19924;-70
2023/07/25 08:16:12;;;;;;;;;;;15.60;99.90;;;;;;5055333;28;19921;-70
2023/07/25 08:18:39;;;;;;;;;;;15.70;99.90;;;;;;5055614;28;20323;-70
2023/07/25 08:21:09;;;;;;;;;;;15.70;99.90;;;;;;5055541;28;19943;-69
2023/07/25 08:23:36;;;;;;;;;;;15.60;99.90;;;;;;5055518;28;20377;-70
2023/07/25 08:26:04;;;;;;;;;;;15.70;99.90;;;;;;5054978;28;19925;-70
2023/07/25 08:28:32;;;;;;;;;;;15.60;99.90;;;;;;5046257;28;19921;-71
2023/07/25 08:31:00;;;;;;;;;;;15.50;99.90;;;;;;5055510;28;20292;-69
2023/07/25 08:33:29;;;;;;;;;;;15.50;99.90;;;;;;5053168;28;20561;-69
2023/07/25 08:35:56;;;;;;;;;;;15.40;99.90;;;;;;5046676;28;19921;-71
2023/07/25 08:38:26;;;;;;;;;;;15.40;99.90;;;;;;5035116;28;19921;-70
2023/07/25 08:40:55;;;;;;;;;;;15.40;99.90;;;;;;5035343;28;19929;-70
2023/07/25 08:43:25;;;;;;;;;;;15.40;99.90;;;;;;5046807;28;19924;-70
2023/07/25 08:45:53;;;;;;;;;;;15.30;99.90;;;;;;5054936;28;19920;-72
2023/07/25 08:48:21;;;;;;;;;;;15.30;99.90;;;;;;5054475;28;19920;-70
2023/07/25 08:50:52;;;;;;;;;;;15.30;99.90;;;;;;5054974;28;19924;-71
2023/07/25 08:53:22;;;;;;;;;;;15.30;99.90;;;;;;5054965;28;19921;-71
2023/07/25 08:55:52;;;;;;;;;;;15.30;99.90;;;;;;5054862;28;20280;-70
2023/07/25 08:58:20;;;;;;;;;;;15.30;99.90;;;;;;5048390;28;19927;-72
2023/07/25 09:00:48;;;;;;;;;;;15.40;99.90;;;;;;5054938;28;19928;-72
2023/07/25 09:03:16;;;;;;;;;;;15.50;99.90;;;;;;5054422;28;19921;-72
2023/07/25 09:05:44;;;;;;;;;;;15.70;99.90;;;;;;5048261;28;19921;-71
2023/07/25 09:08:12;;;;;;;;;;;15.80;99.90;;;;;;5034426;28;20600;-71
2023/07/25 09:10:40;;;;;;;;;;;15.90;99.90;;;;;;5034695;28;19921;-71
2023/07/25 09:13:09;;;;;;;;;;;16.00;99.90;;;;;;5039481;28;19924;-70
2023/07/25 09:15:39;;;;;;;;;;;16.10;99.90;;;;;;5054440;28;19920;-70
2023/07/25 09:18:07;;;;;;;;;;;16.30;99.90;;;;;;5054052;28;20012;-70
2023/07/25 09:20:37;;;;;;;;;;;16.50;99.90;;;;;;5054443;28;19924;-71
2023/07/25 09:23:04;;;;;;;;;;;16.80;99.90;;;;;;5053654;28;19948;-70
2023/07/25 09:25:33;;;;;;;;;;;16.80;99.90;;;;;;5045955;28;19920;-70
2023/07/25 09:28:01;;;;;;;;;;;16.90;99.90;;;;;;5054107;28;19925;-70
2023/07/25 09:30:30;;;;;;;;;;;17.00;99.90;;;;;;5054255;28;20340;-70
2023/07/25 09:32:58;;;;;;;;;;;17.00;99.90;;;;;;5052407;28;19921;-70
2023/07/25 09:35:26;;;;;;;;;;;17.00;99.90;;;;;;5050395;28;20435;-70
2023/07/25 09:37:54;;;;;;;;;;;16.90;99.90;;;;;;5049348;28;19921;-69
2023/07/25 09:40:22;;;;;;;;;;;16.90;99.90;;;;;;5054155;28;19929;-71
2023/07/25 09:42:51;;;;;;;;;;;16.90;99.90;;;;;;5054064;28;19921;-71
2023/07/25 09:45:19;;;;;;;;;;;17.00;99.90;;;;;;5054036;28;20314;-70
2023/07/25 09:47:53;;;;;;;;;;;17.10;99.90;;;;;;5053396;28;19920;-70
2023/07/25 09:50:25;;;;;;;;;;;17.20;99.90;;;;;;5053820;28;19921;-70
2023/07/25 09:52:53;;;;;;;;;;;17.30;99.90;;;;;;5053920;28;19920;-70
2023/07/25 09:55:20;;;;;;;;;;;17.30;99.90;;;;;;5051733;28;20303;-71
2023/07/25 09:57:48;;;;;;;;;;;17.20;99.90;;;;;;5054048;28;19928;-70
2023/07/25 10:00:17;;;;;;;;;;;17.10;99.90;;;;;;5053707;28;20383;-70
2023/07/25 10:02:44;;;;;;;;;;;17.10;99.90;;;;;;5053590;28;19921;-69
2023/07/25 10:05:14;;;;;;;;;;;17.10;99.90;;;;;;5044185;28;19924;-69
2023/07/25 10:07:42;;;;;;;;;;;17.10;99.90;;;;;;5033281;28;20285;-69
2023/07/25 10:10:10;;;;;;;;;;;16.90;99.90;;;;;;5034938;28;19968;-69
2023/07/25 10:12:38;;;;;;;;;;;17.00;99.90;;;;;;5053545;28;19921;-70
2023/07/25 10:15:06;;;;;;;;;;;17.00;99.90;;;;;;5053375;28;20364;-70
2023/07/25 10:17:34;;;;;;;;;;;17.10;99.90;;;;;;5053077;28;19920;-70
2023/07/25 10:20:05;;;;;;;;;;;17.10;99.90;;;;;;5053396;28;20399;-70
2023/07/25 10:22:38;;;;;;;;;;;17.40;99.90;;;;;;5045843;28;19932;-70
2023/07/25 10:25:09;;;;;;;;;;;17.50;99.90;;;;;;5053322;28;19935;-71
2023/07/25 10:27:37;;;;;;;;;;;17.60;99.90;;;;;;5052778;28;19966;-69
2023/07/25 10:30:20;;;;;;;;;;;17.70;99.90;;;;;;5038017;28;20449;-69
2023/07/25 10:32:51;;;;;;;;;;;17.80;99.90;;;;;;5047199;28;19920;-72
2023/07/25 10:35:34;;;;;;;;;;;17.90;99.90;;;;;;5042090;28;19925;-72
2023/07/25 10:38:07;;;;;;;;;;;18.00;99.90;;;;;;5032989;28;20019;-72
2023/07/25 10:40:52;;;;;;;;;;;18.10;99.90;;;;;;5033171;28;19931;-71
2023/07/25 10:43:20;;;;;;;;;;;18.20;99.90;;;;;;5032949;28;19928;-72
2023/07/25 10:45:49;;;;;;;;;;;18.40;99.90;;;;;;5038531;28;19927;-69
2023/07/25 10:48:30;;;;;;;;;;;18.50;99.90;;;;;;5052864;28;19925;-69
2023/07/25 10:50:59;;;;;;;;;;;18.50;99.90;;;;;;5046656;28;19928;-69
2023/07/25 10:53:28;;;;;;;;;;;18.70;99.90;;;;;;5052015;28;19948;-69
2023/07/25 10:56:09;;;;;;;;;;;18.80;99.90;;;;;;5052494;28;19927;-69
2023/07/25 10:58:38;;;;;;;;;;;18.90;99.90;;;;;;5052438;28;20329;-69
2023/07/25 11:01:06;;;;;;;;;;;19.10;99.90;;;;;;5052790;28;20400;-69
2023/07/25 11:03:35;;;;;;;;;;;19.20;99.90;;;;;;5052272;28;19928;-70
2023/07/25 11:06:18;;;;;;;;;;;19.10;99.90;;;;;;5049728;28;19920;-70
2023/07/25 11:08:48;;;;;;;;;;;19.20;99.90;;;;;;5045444;28;20276;-70
2023/07/25 11:11:16;;;;;;;;;;;18.90;99.90;;;;;;5052412;28;20015;-69
2023/07/25 11:13:43;;;;;;;;;;;18.90;99.90;;;;;;5052359;28;19920;-69
2023/07/25 11:16:13;;;;;;;;;;;18.70;99.90;;;;;;5052025;28;19925;-70
2023/07/25 11:18:49;;;;;;;;;;;18.70;99.90;;;;;;5052118;28;19921;-69
2023/07/25 11:21:16;;;;;;;;;;;18.70;99.90;;;;;;5052355;28;19924;-69
2023/07/25 11:23:44;;;;;;;;;;;18.80;99.90;;;;;;5052279;28;19920;-70
2023/07/25 11:26:13;;;;;;;;;;;19.00;99.90;;;;;;5051090;28;19927;-71
2023/07/25 11:28:41;;;;;;;;;;;19.20;99.90;;;;;;5044238;28;19925;-70
2023/07/25 11:31:09;;;;;;;;;;;19.40;99.90;;;;;;5052061;28;19921;-70
2023/07/25 11:33:37;;;;;;;;;;;19.40;99.90;;;;;;5051717;28;19935;-70
2023/07/25 11:36:06;;;;;;;;;;;19.50;99.90;;;;;;5044630;28;19928;-70
2023/07/25 11:38:35;;;;;;;;;;;19.60;99.90;;;;;;5031825;28;19935;-71
2023/07/25 11:41:04;;;;;;;;;;;19.70;99.90;;;;;;5031990;28;19927;-69
2023/07/25 11:43:33;;;;;;;;;;;20.10;99.90;;;;;;5044199;28;20362;-70
2023/07/25 11:46:01;;;;;;;;;;;20.10;99.90;;;;;;5051268;28;20346;-69
2023/07/25 11:48:29;;;;;;;;;;;20.20;99.90;;;;;;5051251;28;19974;-70
2023/07/25 11:50:58;;;;;;;;;;;20.20;99.90;;;;;;5051893;28;20361;-70
2023/07/25 11:53:27;;;;;;;;;;;20.50;99.90;;;;;;5051710;28;19920;-70
2023/07/25 11:55:56;;;;;;;;;;;20.60;99.90;;;;;;5051566;28;19920;-70
2023/07/25 11:58:24;;;;;;;;;;;20.80;99.90;;;;;;5051178;28;19920;-69
2023/07/25 12:00:54;;;;;;;;;;;20.70;99.90;;;;;;5051670;28;19921;-69
2023/07/25 12:03:23;;;;;;;;;;;20.70;99.90;;;;;;5042290;28;19921;-70
2023/07/25 12:05:51;;;;;;;;;;;20.70;99.90;;;;;;5038346;28;19983;-70
2023/07/25 12:08:30;;;;;;;;;;;20.80;99.90;;;;;;5031389;28;19920;-69
2023/07/25 12:11:00;;;;;;;;;;;21.10;99.90;;;;;;5031643;28;19924;-71
2023/07/25 12:13:27;;;;;;;;;;;21.10;99.90;;;;;;5031627;28;19932;-70
2023/07/25 12:15:57;;;;;;;;;;;20.90;99.90;;;;;;5045770;28;20383;-70
2023/07/25 12:18:26;;;;;;;;;;;20.80;99.90;;;;;;5046837;28;19967;-70
2023/07/25 12:20:54;;;;;;;;;;;20.90;99.90;;;;;;5051519;28;19920;-69
2023/07/25 12:23:26;;;;;;;;;;;20.70;99.90;;;;;;5051412;28;19928;-69
2023/07/25 12:25:55;;;;;;;;;;;20.80;99.90;;;;;;5056468;28;20473;-70
2023/07/25 12:28:23;;;;;;;;;;;20.80;99.90;;;;;;5036637;28;19928;-70
2023/07/25 12:30:51;;;;;;;;;;;21.00;99.90;;;;;;5031559;28;19921;-70
2023/07/25 12:33:20;;;;;;;;;;;21.00;99.90;;;;;;5045745;28;19921;-69
2023/07/25 12:35:48;;;;;;;;;;;21.20;99.90;;;;;;5043822;28;20334;-69
2023/07/25 12:38:16;;;;;;;;;;;21.70;99.90;;;;;;5031211;28;20276;-69
2023/07/25 12:40:44;;;;;;;;;;;22.00;99.90;;;;;;5042990;28;20284;-69
2023/07/25 12:43:12;;;;;;;;;;;22.20;99.90;;;;;;5051127;28;19974;-69
2023/07/25 12:45:39;;;;;;;;;;;22.40;99.90;;;;;;5050769;28;19928;-70
2023/07/25 12:48:08;;;;;;;;;;;22.00;99.90;;;;;;5050742;28;19933;-70
2023/07/25 12:50:39;;;;;;;;;;;21.90;99.90;;;;;;5051042;28;19920;-69
2023/07/25 12:53:07;;;;;;;;;;;21.80;99.90;;;;;;5036497;28;19925;-69
2023/07/25 12:55:35;;;;;;;;;;;21.50;99.90;;;;;;5045617;28;19928;-69
2023/07/25 12:58:05;;;;;;;;;;;21.30;99.90;;;;;;5052148;28;19920;-69
2023/07/25 13:00:33;;;;;;;;;;;21.00;99.90;;;;;;5036650;28;19928;-69
2023/07/25 13:03:01;;;;;;;;;;;20.80;99.90;;;;;;5038745;28;19920;-69
2023/07/25 13:05:29;;;;;;;;;;;20.50;99.90;;;;;;5054362;28;19964;-70
2023/07/25 13:07:58;;;;;;;;;;;20.40;99.90;;;;;;5041608;28;20378;-70
2023/07/25 13:10:26;;;;;;;;;;;20.40;99.90;;;;;;5034548;28;20354;-69
2023/07/25 13:12:53;;;;;;;;;;;20.30;99.90;;;;;;5034780;28;20015;-69
2023/07/25 13:15:22;;;;;;;;;;;20.30;99.90;;;;;;5044040;28;19966;-69
2023/07/25 13:17:49;;;;;;;;;;;20.40;99.90;;;;;;5054787;28;19928;-70
2023/07/25 13:20:17;;;;;;;;;;;20.50;99.90;;;;;;5054491;28;19920;-69
2023/07/25 13:22:45;;;;;;;;;;;20.70;99.90;;;;;;5054484;28;19931;-69
2023/07/25 13:25:14;;;;;;;;;;;20.70;99.90;;;;;;5054497;28;19924;-69
2023/07/25 13:27:42;;;;;;;;;;;20.70;99.90;;;;;;5054165;28;19921;-69
2023/07/25 13:30:10;;;;;;;;;;;20.50;99.90;;;;;;5042386;28;19933;-70
2023/07/25 13:32:38;;;;;;;;;;;20.50;99.90;;;;;;5052828;28;19920;-69
2023/07/25 13:35:06;;;;;;;;;;;20.20;99.90;;;;;;5054344;28;19998;-69
2023/07/25 13:37:34;;;;;;;;;;;20.00;99.90;;;;;;5044297;28;19967;-69
2023/07/25 13:40:02;;;;;;;;;;;19.80;99.90;;;;;;5034290;28;19928;-69
2023/07/25 13:42:31;;;;;;;;;;;19.70;99.90;;;;;;5043425;28;20014;-69
2023/07/25 13:44:59;;;;;;;;;;;19.60;99.90;;;;;;5054371;28;19924;-69
2023/07/25 13:47:27;;;;;;;;;;;19.60;99.90;;;;;;5053502;28;19936;-70
2023/07/25 13:49:58;;;;;;;;;;;19.50;99.90;;;;;;5053964;28;19964;-69
2023/07/25 13:52:25;;;;;;;;;;;19.40;99.90;;;;;;5052749;28;20394;-69
2023/07/25 13:54:53;;;;;;;;;;;19.60;99.90;;;;;;5053956;28;19925;-69
2023/07/25 13:57:21;;;;;;;;;;;19.60;99.90;;;;;;5053595;28;20572;-68
2023/07/25 13:59:58;;;;;;;;;;;19.80;99.90;;;;;;5054006;28;19951;-68
2023/07/25 14:02:26;;;;;;;;;;;20.10;99.90;;;;;;5053784;28;20362;-69
2023/07/25 14:04:54;;;;;;;;;;;20.10;99.90;;;;;;5053656;28;20054;-69
2023/07/25 14:07:22;;;;;;;;;;;20.10;99.90;;;;;;5046233;28;19921;-69
2023/07/25 14:09:50;;;;;;;;;;;20.00;99.90;;;;;;5053284;28;19971;-68
2023/07/25 14:12:17;;;;;;;;;;;20.00;99.90;;;;;;5053954;28;19920;-69
2023/07/25 14:14:45;;;;;;;;;;;20.10;99.90;;;;;;5053548;28;19920;-68
2023/07/25 14:17:14;;;;;;;;;;;19.80;99.90;;;;;;5053222;28;20007;-69
2023/07/25 14:19:43;;;;;;;;;;;19.80;99.90;;;;;;5053382;28;19925;-69
2023/07/25 14:22:10;;;;;;;;;;;19.90;99.90;;;;;;5052202;28;19931;-69
2023/07/25 14:24:38;;;;;;;;;;;19.90;99.90;;;;;;5069194;28;19928;-69